sensor_id;sensor_type;location;lat;lon;timestamp;pressure;altitude;pressure_sealevel;temperature;humidity
60852;BME280;48553;50.766;2.900;2024-03-29T00:01:21;98189.19;;;9.36;84.69
60852;BME280;48553;50.766;2.900;2024-03-29T00:04:22;98192.31;;;9.38;84.72
60852;BME280;48553;50.766;2.900;2024-03-29T00:07:22;98189.19;;;9.36;84.54
60852;BME280;48553;50.766;2.900;2024-03-29T00:10:22;98188.81;;;9.41;84.33
60852;BME280;48553;50.766;2.900;2024-03-29T00:13:22;98200.91;;;9.40;84.39
60852;BME280;48553;50.766;2.900;2024-03-29T00:16:23;98175.16;;;9.38;84.59
60852;BME280;48553;50.766;2.900;2024-03-29T00:19:25;98188.81;;;9.34;84.68
60852;BME280;48553;50.766;2.900;2024-03-29T00:22:25;98203.66;;;9.33;84.68
60852;BME280;48553;50.766;2.900;2024-03-29T00:25:26;98203.25;;;9.35;84.62
60852;BME280;48553;50.766;2.900;2024-03-29T00:28:26;98200.13;;;9.33;84.71
60852;BME280;48553;50.766;2.900;2024-03-29T00:31:26;98214.97;;;9.32;84.66
60852;BME280;48553;50.766;2.900;2024-03-29T00:34:26;98214.59;;;9.33;84.66
60852;BME280;48553;50.766;2.900;2024-03-29T00:37:27;98207.16;;;9.30;84.61
60852;BME280;48553;50.766;2.900;2024-03-29T00:40:27;98210.25;;;9.29;84.64
60852;BME280;48553;50.766;2.900;2024-03-29T00:43:27;98207.16;;;9.30;84.35
60852;BME280;48553;50.766;2.900;2024-03-29T00:46:27;98218.09;;;9.27;84.74
60852;BME280;48553;50.766;2.900;2024-03-29T00:49:28;98211.44;;;9.24;84.80
60852;BME280;48553;50.766;2.900;2024-03-29T00:52:28;98216.53;;;9.26;84.48
60852;BME280;48553;50.766;2.900;2024-03-29T00:55:28;98210.25;;;9.22;84.92
60852;BME280;48553;50.766;2.900;2024-03-29T00:58:29;98193.88;;;9.25;84.56
60852;BME280;48553;50.766;2.900;2024-03-29T01:01:29;98183.72;;;9.26;84.66
60852;BME280;48553;50.766;2.900;2024-03-29T01:04:29;98169.66;;;9.24;84.71
60852;BME280;48553;50.766;2.900;2024-03-29T01:07:29;98155.59;;;9.22;84.82
60852;BME280;48553;50.766;2.900;2024-03-29T01:10:29;98156.78;;;9.20;84.89
60852;BME280;48553;50.766;2.900;2024-03-29T01:13:30;98158.75;;;9.20;84.83
60852;BME280;48553;50.766;2.900;2024-03-29T01:16:30;98152.47;;;9.19;84.79
60852;BME280;48553;50.766;2.900;2024-03-29T01:19:30;98148.97;;;9.19;84.77
60852;BME280;48553;50.766;2.900;2024-03-29T01:22:30;98135.31;;;9.19;84.96
60852;BME280;48553;50.766;2.900;2024-03-29T01:25:31;98133.34;;;9.19;84.49
60852;BME280;48553;50.766;2.900;2024-03-29T01:28:31;98140.00;;;9.18;84.63
60852;BME280;48553;50.766;2.900;2024-03-29T01:31:31;98148.19;;;9.18;84.57
60852;BME280;48553;50.766;2.900;2024-03-29T01:34:32;98140.00;;;9.18;84.36
60852;BME280;48553;50.766;2.900;2024-03-29T01:37:33;98157.59;;;9.17;84.28
60852;BME280;48553;50.766;2.900;2024-03-29T01:40:34;98166.94;;;9.16;84.12
60852;BME280;48553;50.766;2.900;2024-03-29T01:43:34;98151.72;;;9.15;83.94
60852;BME280;48553;50.766;2.900;2024-03-29T01:46:35;98183.34;;;9.16;83.63
60852;BME280;48553;50.766;2.900;2024-03-29T01:49:36;98191.53;;;9.16;83.90
60852;BME280;48553;50.766;2.900;2024-03-29T01:52:37;98177.06;;;9.19;83.71
60852;BME280;48553;50.766;2.900;2024-03-29T01:55:37;98175.91;;;9.20;83.77
60852;BME280;48553;50.766;2.900;2024-03-29T01:58:38;98181.00;;;9.18;83.88
60852;BME280;48553;50.766;2.900;2024-03-29T02:01:39;98176.31;;;9.19;83.75
60852;BME280;48553;50.766;2.900;2024-03-29T02:04:40;98172.78;;;9.15;83.78
60852;BME280;48553;50.766;2.900;2024-03-29T02:07:41;98176.31;;;9.15;84.57
60852;BME280;48553;50.766;2.900;2024-03-29T02:10:45;98161.47;;;9.16;84.47
60852;BME280;48553;50.766;2.900;2024-03-29T02:13:47;98157.56;;;9.14;84.51
60852;BME280;48553;50.766;2.900;2024-03-29T02:16:48;98175.13;;;9.16;84.52
60852;BME280;48553;50.766;2.900;2024-03-29T02:19:48;98159.91;;;9.12;84.85
60852;BME280;48553;50.766;2.900;2024-03-29T02:22:55;98155.22;;;9.12;84.84
60852;BME280;48553;50.766;2.900;2024-03-29T02:25:55;98152.13;;;9.17;84.63
60852;BME280;48553;50.766;2.900;2024-03-29T02:28:56;98163.81;;;9.14;84.89
60852;BME280;48553;50.766;2.900;2024-03-29T02:31:56;98140.00;;;9.11;85.01
60852;BME280;48553;50.766;2.900;2024-03-29T02:34:56;98147.44;;;9.11;84.91
60852;BME280;48553;50.766;2.900;2024-03-29T02:37:57;98164.97;;;9.10;85.29
60852;BME280;48553;50.766;2.900;2024-03-29T02:40:57;98157.56;;;9.07;85.13
60852;BME280;48553;50.766;2.900;2024-03-29T02:43:57;98178.25;;;9.08;85.18
60852;BME280;48553;50.766;2.900;2024-03-29T02:46:57;98186.44;;;9.08;85.14
60852;BME280;48553;50.766;2.900;2024-03-29T02:49:58;98174.75;;;9.07;85.61
60852;BME280;48553;50.766;2.900;2024-03-29T02:52:58;98163.81;;;9.07;85.50
60852;BME280;48553;50.766;2.900;2024-03-29T02:55:58;98189.94;;;9.08;85.61
60852;BME280;48553;50.766;2.900;2024-03-29T02:58:58;98196.59;;;9.04;85.39
60852;BME280;48553;50.766;2.900;2024-03-29T03:01:59;98202.06;;;9.07;85.65
60852;BME280;48553;50.766;2.900;2024-03-29T03:04:59;98189.19;;;9.04;85.98
60852;BME280;48553;50.766;2.900;2024-03-29T03:08:00;98204.00;;;9.03;86.14
60852;BME280;48553;50.766;2.900;2024-03-29T03:11:19;98199.31;;;9.00;86.40
60852;BME280;48553;50.766;2.900;2024-03-29T03:14:19;98199.31;;;9.00;86.81
60852;BME280;48553;50.766;2.900;2024-03-29T03:17:20;98207.53;;;9.00;87.02
60852;BME280;48553;50.766;2.900;2024-03-29T03:20:20;98214.94;;;8.99;87.31
60852;BME280;48553;50.766;2.900;2024-03-29T03:23:22;98204.78;;;9.00;87.98
60852;BME280;48553;50.766;2.900;2024-03-29T03:26:22;98189.56;;;8.99;88.31
60852;BME280;48553;50.766;2.900;2024-03-29T03:29:23;98219.59;;;8.95;89.05
60852;BME280;48553;50.766;2.900;2024-03-29T03:32:23;98228.94;;;8.94;89.29
60852;BME280;48553;50.766;2.900;2024-03-29T03:35:23;98200.47;;;8.92;89.38
60852;BME280;48553;50.766;2.900;2024-03-29T03:38:23;98205.19;;;8.95;89.74
60852;BME280;48553;50.766;2.900;2024-03-29T03:41:24;98189.16;;;8.93;89.88
60852;BME280;48553;50.766;2.900;2024-03-29T03:44:24;98188.38;;;8.89;90.17
60852;BME280;48553;50.766;2.900;2024-03-29T03:47:25;98210.59;;;8.88;90.04
60852;BME280;48553;50.766;2.900;2024-03-29T03:50:25;98199.66;;;8.88;90.20
60852;BME280;48553;50.766;2.900;2024-03-29T03:53:25;98209.81;;;8.87;90.33
60852;BME280;48553;50.766;2.900;2024-03-29T03:56:25;98211.78;;;8.87;90.52
60852;BME280;48553;50.766;2.900;2024-03-29T03:59:26;98196.94;;;8.84;90.69
60852;BME280;48553;50.766;2.900;2024-03-29T04:02:26;98213.34;;;8.84;91.00
60852;BME280;48553;50.766;2.900;2024-03-29T04:05:26;98205.91;;;8.85;90.80
60852;BME280;48553;50.766;2.900;2024-03-29T04:08:26;98213.72;;;8.83;91.13
60852;BME280;48553;50.766;2.900;2024-03-29T04:11:27;98228.16;;;8.83;90.88
60852;BME280;48553;50.766;2.900;2024-03-29T04:14:28;98194.59;;;8.83;90.97
60852;BME280;48553;50.766;2.900;2024-03-29T04:17:29;98196.16;;;8.80;91.24
60852;BME280;48553;50.766;2.900;2024-03-29T04:20:32;98204.72;;;8.78;91.43
60852;BME280;48553;50.766;2.900;2024-03-29T04:23:32;98200.81;;;8.76;91.36
60852;BME280;48553;50.766;2.900;2024-03-29T04:26:32;98188.72;;;8.73;91.71
60852;BME280;48553;50.766;2.900;2024-03-29T04:29:33;98175.84;;;8.74;91.56
60852;BME280;48553;50.766;2.900;2024-03-29T04:32:33;98204.72;;;8.71;91.99
60852;BME280;48553;50.766;2.900;2024-03-29T04:35:33;98203.53;;;8.65;92.20
60852;BME280;48553;50.766;2.900;2024-03-29T04:38:33;98197.69;;;8.67;92.05
60852;BME280;48553;50.766;2.900;2024-03-29T04:41:35;98203.13;;;8.67;91.97
60852;BME280;48553;50.766;2.900;2024-03-29T04:44:35;98197.69;;;8.63;92.35
60852;BME280;48553;50.766;2.900;2024-03-29T04:47:35;98201.94;;;8.61;92.53
60852;BME280;48553;50.766;2.900;2024-03-29T04:50:36;98200.00;;;8.57;92.87
60852;BME280;48553;50.766;2.900;2024-03-29T04:53:36;98203.09;;;8.56;92.67
60852;BME280;48553;50.766;2.900;2024-03-29T04:56:37;98210.91;;;8.54;93.21
60852;BME280;48553;50.766;2.900;2024-03-29T04:59:37;98218.72;;;8.52;93.00
60852;BME280;48553;50.766;2.900;2024-03-29T05:02:37;98228.03;;;8.51;93.03
60852;BME280;48553;50.766;2.900;2024-03-29T05:05:38;98224.53;;;8.50;93.21
60852;BME280;48553;50.766;2.900;2024-03-29T05:08:38;98233.91;;;8.49;93.04
60852;BME280;48553;50.766;2.900;2024-03-29T05:11:38;98240.50;;;8.45;93.50
60852;BME280;48553;50.766;2.900;2024-03-29T05:14:38;98243.22;;;8.45;93.47
60852;BME280;48553;50.766;2.900;2024-03-29T05:17:39;98245.94;;;8.45;93.78
60852;BME280;48553;50.766;2.900;2024-03-29T05:20:41;98252.63;;;8.47;93.53
60852;BME280;48553;50.766;2.900;2024-03-29T05:23:47;98248.69;;;8.45;93.47
60852;BME280;48553;50.766;2.900;2024-03-29T05:26:47;98255.31;;;8.44;93.96
60852;BME280;48553;50.766;2.900;2024-03-29T05:29:47;98235.03;;;8.41;93.69
60852;BME280;48553;50.766;2.900;2024-03-29T05:32:47;98251.03;;;8.43;94.20
60852;BME280;48553;50.766;2.900;2024-03-29T05:35:48;98244.41;;;8.44;94.07
60852;BME280;48553;50.766;2.900;2024-03-29T05:38:48;98251.75;;;8.40;94.55
60852;BME280;48553;50.766;2.900;2024-03-29T05:41:48;98253.69;;;8.39;95.13
60852;BME280;48553;50.766;2.900;2024-03-29T05:44:49;98259.94;;;8.40;95.37
60852;BME280;48553;50.766;2.900;2024-03-29T05:47:49;98253.31;;;8.37;95.05
60852;BME280;48553;50.766;2.900;2024-03-29T05:50:49;98243.97;;;8.38;95.83
60852;BME280;48553;50.766;2.900;2024-03-29T05:53:49;98245.88;;;8.37;95.28
60852;BME280;48553;50.766;2.900;2024-03-29T05:56:50;98244.75;;;8.39;95.27
60852;BME280;48553;50.766;2.900;2024-03-29T05:59:53;98229.50;;;8.37;95.63
60852;BME280;48553;50.766;2.900;2024-03-29T06:02:54;98243.16;;;8.37;95.54
60852;BME280;48553;50.766;2.900;2024-03-29T06:05:55;98244.75;;;8.39;95.52
60852;BME280;48553;50.766;2.900;2024-03-29T06:08:55;98246.69;;;8.38;95.82
60852;BME280;48553;50.766;2.900;2024-03-29T06:11:56;98242.00;;;8.39;95.57
60852;BME280;48553;50.766;2.900;2024-03-29T06:14:56;98247.91;;;8.41;95.61
60852;BME280;48553;50.766;2.900;2024-03-29T06:18:15;98263.88;;;8.42;95.96
60852;BME280;48553;50.766;2.900;2024-03-29T06:21:16;98276.38;;;8.43;95.89
60852;BME280;48553;50.766;2.900;2024-03-29T06:24:16;98286.44;;;8.39;96.30
60852;BME280;48553;50.766;2.900;2024-03-29T06:27:17;98309.88;;;8.40;96.61
60852;BME280;48553;50.766;2.900;2024-03-29T06:30:18;98316.13;;;8.41;96.77
60852;BME280;48553;50.766;2.900;2024-03-29T06:33:19;98311.44;;;8.41;97.24
60852;BME280;48553;50.766;2.900;2024-03-29T06:36:19;98329.38;;;8.42;97.54
60852;BME280;48553;50.766;2.900;2024-03-29T06:39:19;98321.59;;;8.44;97.24
60852;BME280;48553;50.766;2.900;2024-03-29T06:42:20;98318.09;;;8.44;97.64
60852;BME280;48553;50.766;2.900;2024-03-29T06:45:20;98307.56;;;8.46;97.68
60852;BME280;48553;50.766;2.900;2024-03-29T06:48:21;98316.53;;;8.46;97.78
60852;BME280;48553;50.766;2.900;2024-03-29T06:51:21;98312.25;;;8.49;98.15
60852;BME280;48553;50.766;2.900;2024-03-29T06:54:21;98319.72;;;8.52;98.42
60852;BME280;48553;50.766;2.900;2024-03-29T06:57:22;98322.84;;;8.54;98.40
60852;BME280;48553;50.766;2.900;2024-03-29T07:00:25;98330.63;;;8.55;98.27
60852;BME280;48553;50.766;2.900;2024-03-29T07:03:25;98325.56;;;8.57;98.73
60852;BME280;48553;50.766;2.900;2024-03-29T07:06:26;98305.31;;;8.59;98.38
60852;BME280;48553;50.766;2.900;2024-03-29T07:09:26;98304.50;;;8.58;98.97
60852;BME280;48553;50.766;2.900;2024-03-29T07:12:26;98310.38;;;8.60;99.03
60852;BME280;48553;50.766;2.900;2024-03-29T07:15:26;98311.56;;;8.63;98.82
60852;BME280;48553;50.766;2.900;2024-03-29T07:18:27;98303.75;;;8.65;98.82
60852;BME280;48553;50.766;2.900;2024-03-29T07:21:27;98304.56;;;8.65;98.95
60852;BME280;48553;50.766;2.900;2024-03-29T07:24:27;98310.03;;;8.69;98.97
60852;BME280;48553;50.766;2.900;2024-03-29T07:27:28;98306.91;;;8.70;99.24
60852;BME280;48553;50.766;2.900;2024-03-29T07:30:32;98318.63;;;8.71;99.74
60852;BME280;48553;50.766;2.900;2024-03-29T07:33:33;98303.41;;;8.73;99.66
60852;BME280;48553;50.766;2.900;2024-03-29T07:36:33;98314.75;;;8.75;99.21
60852;BME280;48553;50.766;2.900;2024-03-29T07:39:35;98326.84;;;8.78;99.96
60852;BME280;48553;50.766;2.900;2024-03-29T07:42:35;98344.41;;;8.81;100.00
60852;BME280;48553;50.766;2.900;2024-03-29T07:45:37;98342.06;;;8.83;99.85
60852;BME280;48553;50.766;2.900;2024-03-29T07:48:37;98333.91;;;8.86;99.49
60852;BME280;48553;50.766;2.900;2024-03-29T07:51:37;98340.94;;;8.87;99.49
60852;BME280;48553;50.766;2.900;2024-03-29T07:54:37;98347.97;;;8.92;99.21
60852;BME280;48553;50.766;2.900;2024-03-29T07:57:38;98350.31;;;8.93;99.01
60852;BME280;48553;50.766;2.900;2024-03-29T08:00:39;98346.47;;;9.02;98.71
60852;BME280;48553;50.766;2.900;2024-03-29T08:03:41;98350.78;;;9.06;98.64
60852;BME280;48553;50.766;2.900;2024-03-29T08:06:41;98352.72;;;9.09;98.60
60852;BME280;48553;50.766;2.900;2024-03-29T08:09:41;98346.50;;;9.16;98.24
60852;BME280;48553;50.766;2.900;2024-03-29T08:12:42;98355.09;;;9.22;97.91
60852;BME280;48553;50.766;2.900;2024-03-29T08:15:42;98361.38;;;9.26;97.62
60852;BME280;48553;50.766;2.900;2024-03-29T08:18:42;98353.19;;;9.29;97.39
60852;BME280;48553;50.766;2.900;2024-03-29T08:21:42;98344.59;;;9.31;97.29
60852;BME280;48553;50.766;2.900;2024-03-29T08:24:43;98357.50;;;9.34;97.31
60852;BME280;48553;50.766;2.900;2024-03-29T08:27:44;98382.91;;;9.38;97.39
60852;BME280;48553;50.766;2.900;2024-03-29T08:30:44;98371.56;;;9.39;97.28
60852;BME280;48553;50.766;2.900;2024-03-29T08:33:45;98375.47;;;9.42;97.12
60852;BME280;48553;50.766;2.900;2024-03-29T08:36:45;98369.25;;;9.49;96.67
60852;BME280;48553;50.766;2.900;2024-03-29T08:39:45;98373.94;;;9.52;96.70
60852;BME280;48553;50.766;2.900;2024-03-29T08:42:45;98376.69;;;9.59;96.89
60852;BME280;48553;50.766;2.900;2024-03-29T08:45:46;98397.03;;;9.76;96.31
60852;BME280;48553;50.766;2.900;2024-03-29T08:48:46;98397.44;;;9.92;95.50
60852;BME280;48553;50.766;2.900;2024-03-29T08:51:46;98383.78;;;10.14;96.01
60852;BME280;48553;50.766;2.900;2024-03-29T08:54:47;98400.25;;;10.32;94.84
60852;BME280;48553;50.766;2.900;2024-03-29T08:57:47;98403.34;;;10.55;94.37
60852;BME280;48553;50.766;2.900;2024-03-29T09:00:54;98406.44;;;10.75;94.48
60852;BME280;48553;50.766;2.900;2024-03-29T09:03:55;98405.59;;;10.96;94.17
60852;BME280;48553;50.766;2.900;2024-03-29T09:06:55;98406.31;;;11.18;93.72
60852;BME280;48553;50.766;2.900;2024-03-29T09:09:55;98398.00;;;11.40;92.94
60852;BME280;48553;50.766;2.900;2024-03-29T09:12:56;98391.97;;;11.66;92.97
60852;BME280;48553;50.766;2.900;2024-03-29T09:15:56;98400.09;;;11.84;92.35
60852;BME280;48553;50.766;2.900;2024-03-29T09:18:56;98397.66;;;12.01;92.39
60852;BME280;48553;50.766;2.900;2024-03-29T09:21:56;98415.97;;;12.22;91.68
60852;BME280;48553;50.766;2.900;2024-03-29T09:24:57;98415.84;;;12.36;90.12
60852;BME280;48553;50.766;2.900;2024-03-29T09:27:57;98429.81;;;12.52;90.69
60852;BME280;48553;50.766;2.900;2024-03-29T09:30:58;98428.53;;;12.64;89.73
60852;BME280;48553;50.766;2.900;2024-03-29T09:33:59;98422.47;;;12.84;90.06
60852;BME280;48553;50.766;2.900;2024-03-29T09:36:59;98421.53;;;12.98;89.01
60852;BME280;48553;50.766;2.900;2024-03-29T09:39:59;98428.78;;;13.19;87.68
60852;BME280;48553;50.766;2.900;2024-03-29T09:43:00;98450.56;;;13.40;87.82
60852;BME280;48553;50.766;2.900;2024-03-29T09:46:02;98423.28;;;13.53;86.93
60852;BME280;48553;50.766;2.900;2024-03-29T09:49:03;98423.00;;;13.74;85.34
60852;BME280;48553;50.766;2.900;2024-03-29T09:52:04;98419.75;;;13.83;83.27
60852;BME280;48553;50.766;2.900;2024-03-29T09:55:05;98421.63;;;13.90;85.27
60852;BME280;48553;50.766;2.900;2024-03-29T09:58:07;98439.09;;;14.03;84.33
60852;BME280;48553;50.766;2.900;2024-03-29T10:01:07;98450.66;;;14.22;83.57
60852;BME280;48553;50.766;2.900;2024-03-29T10:04:08;98447.19;;;14.41;82.42
60852;BME280;48553;50.766;2.900;2024-03-29T10:07:08;98443.56;;;14.71;82.27
60852;BME280;48553;50.766;2.900;2024-03-29T10:10:12;98452.91;;;14.77;80.95
60852;BME280;48553;50.766;2.900;2024-03-29T10:13:12;98458.50;;;14.74;81.75
60852;BME280;48553;50.766;2.900;2024-03-29T10:16:12;98453.97;;;14.60;79.10
60852;BME280;48553;50.766;2.900;2024-03-29T10:19:13;98458.94;;;14.45;79.59
60852;BME280;48553;50.766;2.900;2024-03-29T10:22:13;98458.72;;;14.32;79.75
60852;BME280;48553;50.766;2.900;2024-03-29T10:25:14;98457.06;;;14.38;79.37
60852;BME280;48553;50.766;2.900;2024-03-29T10:28:14;98450.31;;;14.43;79.86
60852;BME280;48553;50.766;2.900;2024-03-29T10:31:15;98432.56;;;14.44;79.29
60852;BME280;48553;50.766;2.900;2024-03-29T10:34:15;98436.88;;;14.45;79.82
60852;BME280;48553;50.766;2.900;2024-03-29T10:37:15;98443.59;;;14.44;79.37
60852;BME280;48553;50.766;2.900;2024-03-29T10:40:16;98457.69;;;14.50;79.30
60852;BME280;48553;50.766;2.900;2024-03-29T10:43:19;98453.94;;;14.64;78.54
60852;BME280;48553;50.766;2.900;2024-03-29T10:46:20;98456.16;;;14.72;79.38
60852;BME280;48553;50.766;2.900;2024-03-29T10:49:21;98448.13;;;14.81;78.47
60852;BME280;48553;50.766;2.900;2024-03-29T10:52:21;98459.09;;;15.05;77.87
60852;BME280;48553;50.766;2.900;2024-03-29T10:55:22;98468.06;;;15.13;76.27
60852;BME280;48553;50.766;2.900;2024-03-29T10:58:24;98477.72;;;15.21;78.43
60852;BME280;48553;50.766;2.900;2024-03-29T11:01:25;98477.75;;;15.41;78.03
60852;BME280;48553;50.766;2.900;2024-03-29T11:04:29;98473.00;;;15.41;77.42
60852;BME280;48553;50.766;2.900;2024-03-29T11:07:34;98473.22;;;15.51;76.15
60852;BME280;48553;50.766;2.900;2024-03-29T11:10:41;98482.22;;;15.55;76.43
60852;BME280;48553;50.766;2.900;2024-03-29T11:13:49;98486.91;;;15.58;75.85
60852;BME280;48553;50.766;2.900;2024-03-29T11:16:52;98489.00;;;15.70;75.67
60852;BME280;48553;50.766;2.900;2024-03-29T11:19:58;98492.91;;;15.73;75.14
60852;BME280;48553;50.766;2.900;2024-03-29T11:23:00;98510.31;;;15.70;73.69
60852;BME280;48553;50.766;2.900;2024-03-29T11:26:05;98489.56;;;15.61;74.84
60852;BME280;48553;50.766;2.900;2024-03-29T11:29:06;98487.44;;;15.69;75.27
60852;BME280;48553;50.766;2.900;2024-03-29T11:32:06;98502.34;;;15.75;74.07
60852;BME280;48553;50.766;2.900;2024-03-29T11:35:13;98479.72;;;15.80;74.59
60852;BME280;48553;50.766;2.900;2024-03-29T11:38:16;98490.84;;;15.97;72.96
60852;BME280;48553;50.766;2.900;2024-03-29T11:41:18;98494.28;;;16.01;72.53
60852;BME280;48553;50.766;2.900;2024-03-29T11:44:18;98502.88;;;16.06;73.26
60852;BME280;48553;50.766;2.900;2024-03-29T11:47:19;98504.84;;;16.06;72.71
60852;BME280;48553;50.766;2.900;2024-03-29T11:50:19;98503.13;;;16.12;73.14
60852;BME280;48553;50.766;2.900;2024-03-29T11:53:20;98508.00;;;16.24;72.10
60852;BME280;48553;50.766;2.900;2024-03-29T11:56:20;98502.47;;;16.24;72.44
60852;BME280;48553;50.766;2.900;2024-03-29T11:59:21;98504.31;;;16.31;71.91
60852;BME280;48553;50.766;2.900;2024-03-29T12:02:21;98503.78;;;16.36;71.43
60852;BME280;48553;50.766;2.900;2024-03-29T12:05:21;98506.88;;;16.22;70.94
60852;BME280;48553;50.766;2.900;2024-03-29T12:08:22;98501.28;;;16.05;71.22
60852;BME280;48553;50.766;2.900;2024-03-29T12:11:22;98507.63;;;16.06;71.37
60852;BME280;48553;50.766;2.900;2024-03-29T12:14:23;98511.78;;;16.14;70.11
60852;BME280;48553;50.766;2.900;2024-03-29T12:17:24;98509.13;;;16.43;69.79
60852;BME280;48553;50.766;2.900;2024-03-29T12:20:25;98495.59;;;16.65;67.77
60852;BME280;48553;50.766;2.900;2024-03-29T12:23:25;98492.38;;;16.50;69.81
60852;BME280;48553;50.766;2.900;2024-03-29T12:26:26;98507.31;;;16.53;70.02
60852;BME280;48553;50.766;2.900;2024-03-29T12:29:30;98516.25;;;16.61;69.41
60852;BME280;48553;50.766;2.900;2024-03-29T12:32:30;98494.88;;;16.78;68.84
60852;BME280;48553;50.766;2.900;2024-03-29T12:35:33;98512.00;;;16.73;68.12
60852;BME280;48553;50.766;2.900;2024-03-29T12:38:33;98502.59;;;16.70;68.94
60852;BME280;48553;50.766;2.900;2024-03-29T12:41:34;98511.25;;;16.72;68.55
60852;BME280;48553;50.766;2.900;2024-03-29T12:44:35;98503.19;;;16.61;69.32
60852;BME280;48553;50.766;2.900;2024-03-29T12:47:36;98514.06;;;16.52;69.60
60852;BME280;48553;50.766;2.900;2024-03-29T12:50:36;98522.63;;;16.58;67.48
60852;BME280;48553;50.766;2.900;2024-03-29T12:53:37;98544.31;;;16.43;69.15
60852;BME280;48553;50.766;2.900;2024-03-29T12:56:38;98546.88;;;16.34;68.82
60852;BME280;48553;50.766;2.900;2024-03-29T12:59:40;98533.72;;;16.21;70.41
60852;BME280;48553;50.766;2.900;2024-03-29T13:02:41;98553.50;;;16.20;69.54
60852;BME280;48553;50.766;2.900;2024-03-29T13:05:41;98552.97;;;16.08;69.51
60852;BME280;48553;50.766;2.900;2024-03-29T13:08:41;98540.59;;;15.97;70.27
60852;BME280;48553;50.766;2.900;2024-03-29T13:11:42;98553.47;;;16.03;69.46
60852;BME280;48553;50.766;2.900;2024-03-29T13:14:42;98559.00;;;16.03;69.31
60852;BME280;48553;50.766;2.900;2024-03-29T13:17:42;98556.66;;;16.02;70.10
60852;BME280;48553;50.766;2.900;2024-03-29T13:20:43;98534.00;;;15.91;70.81
60852;BME280;48553;50.766;2.900;2024-03-29T13:23:43;98538.81;;;15.86;69.17
60852;BME280;48553;50.766;2.900;2024-03-29T13:26:43;98560.91;;;15.86;68.92
60852;BME280;48553;50.766;2.900;2024-03-29T13:29:44;98573.94;;;15.86;68.20
60852;BME280;48553;50.766;2.900;2024-03-29T13:32:44;98550.72;;;15.83;69.23
60852;BME280;48553;50.766;2.900;2024-03-29T13:35:47;98539.88;;;15.93;68.39
60852;BME280;48553;50.766;2.900;2024-03-29T13:38:47;98537.31;;;16.02;67.28
60852;BME280;48553;50.766;2.900;2024-03-29T13:41:47;98543.34;;;15.97;67.13
60852;BME280;48553;50.766;2.900;2024-03-29T13:44:51;98537.88;;;15.93;67.61
60852;BME280;48553;50.766;2.900;2024-03-29T13:47:51;98558.50;;;15.89;68.12
60852;BME280;48553;50.766;2.900;2024-03-29T13:50:52;98561.06;;;15.79;68.73
60852;BME280;48553;50.766;2.900;2024-03-29T13:53:52;98564.59;;;15.80;67.41
60852;BME280;48553;50.766;2.900;2024-03-29T13:56:54;98550.97;;;15.89;66.27
60852;BME280;48553;50.766;2.900;2024-03-29T13:59:54;98574.50;;;15.77;67.71
60852;BME280;48553;50.766;2.900;2024-03-29T14:02:54;98573.03;;;15.69;68.84
60852;BME280;48553;50.766;2.900;2024-03-29T14:05:56;98575.03;;;15.69;66.96
60852;BME280;48553;50.766;2.900;2024-03-29T14:08:56;98561.38;;;15.61;68.42
60852;BME280;48553;50.766;2.900;2024-03-29T14:11:57;98557.16;;;15.53;67.98
60852;BME280;48553;50.766;2.900;2024-03-29T14:14:57;98569.06;;;15.50;67.82
60852;BME280;48553;50.766;2.900;2024-03-29T14:17:58;98558.94;;;15.43;68.36
60852;BME280;48553;50.766;2.900;2024-03-29T14:20:58;98556.31;;;15.36;67.56
60852;BME280;48553;50.766;2.900;2024-03-29T14:23:58;98545.75;;;15.31;68.05
60852;BME280;48553;50.766;2.900;2024-03-29T14:26:59;98544.53;;;15.32;68.67
60852;BME280;48553;50.766;2.900;2024-03-29T14:29:59;98540.28;;;15.28;67.46
60852;BME280;48553;50.766;2.900;2024-03-29T14:32:59;98543.50;;;15.26;67.26
60852;BME280;48553;50.766;2.900;2024-03-29T14:36:06;98541.88;;;15.29;68.32
60852;BME280;48553;50.766;2.900;2024-03-29T14:39:06;98563.88;;;15.32;68.62
60852;BME280;48553;50.766;2.900;2024-03-29T14:42:07;98562.59;;;15.37;68.33
60852;BME280;48553;50.766;2.900;2024-03-29T14:45:09;98555.81;;;15.41;69.21
60852;BME280;48553;50.766;2.900;2024-03-29T14:48:11;98563.38;;;15.37;70.46
60852;BME280;48553;50.766;2.900;2024-03-29T14:51:11;98560.63;;;15.37;69.49
60852;BME280;48553;50.766;2.900;2024-03-29T14:54:12;98563.03;;;15.35;69.15
60852;BME280;48553;50.766;2.900;2024-03-29T14:57:12;98574.13;;;15.32;69.48
60852;BME280;48553;50.766;2.900;2024-03-29T15:00:13;98577.31;;;15.30;70.05
60852;BME280;48553;50.766;2.900;2024-03-29T15:03:14;98570.59;;;15.31;69.67
60852;BME280;48553;50.766;2.900;2024-03-29T15:06:14;98570.59;;;15.31;68.41
60852;BME280;48553;50.766;2.900;2024-03-29T15:09:15;98563.09;;;15.32;68.49
60852;BME280;48553;50.766;2.900;2024-03-29T15:12:15;98557.22;;;15.30;68.91
60852;BME280;48553;50.766;2.900;2024-03-29T15:15:15;98554.19;;;15.24;69.08
60852;BME280;48553;50.766;2.900;2024-03-29T15:18:16;98547.06;;;15.23;69.94
60852;BME280;48553;50.766;2.900;2024-03-29T15:21:16;98547.06;;;15.23;69.52
60852;BME280;48553;50.766;2.900;2024-03-29T15:24:18;98546.34;;;15.19;70.14
60852;BME280;48553;50.766;2.900;2024-03-29T15:27:18;98557.47;;;15.15;69.27
60852;BME280;48553;50.766;2.900;2024-03-29T15:30:38;98558.75;;;15.11;69.98
60852;BME280;48553;50.766;2.900;2024-03-29T15:33:43;98569.41;;;15.09;69.09
60852;BME280;48553;50.766;2.900;2024-03-29T15:36:43;98564.72;;;15.06;69.17
60852;BME280;48553;50.766;2.900;2024-03-29T15:39:44;98563.53;;;15.07;68.97
60852;BME280;48553;50.766;2.900;2024-03-29T15:42:45;98556.88;;;15.04;68.94
60852;BME280;48553;50.766;2.900;2024-03-29T15:45:45;98549.00;;;15.02;69.59
60852;BME280;48553;50.766;2.900;2024-03-29T15:48:45;98566.78;;;15.01;69.53
60852;BME280;48553;50.766;2.900;2024-03-29T15:51:45;98545.59;;;14.95;68.43
60852;BME280;48553;50.766;2.900;2024-03-29T15:54:46;98546.88;;;14.90;69.67
60852;BME280;48553;50.766;2.900;2024-03-29T15:57:46;98550.94;;;14.82;70.37
60852;BME280;48553;50.766;2.900;2024-03-29T16:00:46;98543.91;;;14.77;70.58
60852;BME280;48553;50.766;2.900;2024-03-29T16:03:47;98534.53;;;14.71;71.42